Terminal Aerodrome Forecast
Issued by NWS

Home | Current Version | Previous Version | Graphics & Text | Print | Product List | Glossary On
Versions: 1 2 3 4 5 6 7 8 9 10 11 12 13 14 15
000
FTUS43 KBIS 171120
TAFJMS
TAF
KJMS 171120Z 1712/1812 31007KT P6SM VCFG FEW010
     FM171400 34006KT P6SM FEW200
     FM171600 VRB04KT P6SM FEW200
     FM172200 30007KT P6SM FEW200
     FM180000 20006KT P6SM VCTS SCT090CB SCT200=

USA.gov is the U.S. government's official web portal to all federal, state and local government web resources and services.